Orbital elements of RADIO 7
| Launched | 16 December 1981 |
| Flight ended | – |
| Launch site | Plesetsk Missile and Space Complex, Russia |
| Owner | Commonwealth of Independent States (former USSR) |
| NORAD ID | 13001 |
| Date fetched |
Epoch osculation |
Inc. [°] |
Ecc. | RA asc node [hr] |
Arg Peri. [°] |
Mean anom [°] |
Mean motion [rev/day] |
Abs. mag |
| Date fetched |
Epoch osculation |
Inc. [°] |
Ecc. | RA asc node [hr] |
Arg Peri. [°] |
Mean anom [°] |
Mean motion [rev/day] |
Abs. mag |
| 2026 May 06 17:57 | 2026 May 05 12:37:27 | 82.9618 | 0.00247 | 3.0921 | 95.6595 | 77.6769 | 12.08948 | 9.743 |
| 2026 May 05 17:57 | 2026 May 05 12:37:27 | 82.9618 | 0.00247 | 3.0921 | 95.6595 | 77.6769 | 12.08948 | 9.743 |
| 2026 May 04 17:57 | 2026 Apr 30 13:27:17 | 82.9613 | 0.00247 | 3.2733 | 105.5007 | 77.6769 | 12.08948 | 9.743 |
| 2026 May 03 17:57 | 2026 Apr 30 13:27:17 | 82.9613 | 0.00247 | 3.2733 | 105.5007 | 77.6769 | 12.08948 | 9.743 |
| 2026 May 02 17:57 | 2026 Apr 30 13:27:17 | 82.9613 | 0.00247 | 3.2733 | 105.5007 | 77.6769 | 12.08948 | 9.743 |
| 2026 May 01 17:56 | 2026 Apr 30 13:27:17 | 82.9613 | 0.00247 | 3.2733 | 105.5007 | 77.6769 | 12.08948 | 9.743 |
| 2026 Apr 30 17:56 | 2026 Apr 30 13:27:17 | 82.9613 | 0.00247 | 3.2733 | 105.5007 | 77.6769 | 12.08948 | 9.743 |
| 2026 Apr 29 17:57 | 2026 Apr 24 08:11:00 | 82.9604 | 0.00245 | 3.5003 | 117.8872 | 77.6769 | 12.08948 | 9.743 |
| 2026 Apr 28 17:56 | 2026 Apr 24 08:11:00 | 82.9604 | 0.00245 | 3.5003 | 117.8872 | 77.6769 | 12.08948 | 9.743 |
| 2026 Apr 27 17:58 | 2026 Apr 24 08:11:00 | 82.9604 | 0.00245 | 3.5003 | 117.8872 | 77.6769 | 12.08948 | 9.743 |
| 2026 Apr 26 17:58 | 2026 Apr 24 08:11:00 | 82.9604 | 0.00245 | 3.5003 | 117.8872 | 77.6769 | 12.08948 | 9.743 |
| 2026 Apr 25 17:58 | 2026 Apr 24 08:11:00 | 82.9604 | 0.00245 | 3.5003 | 117.8872 | 77.6769 | 12.08948 | 9.743 |
| 2026 Apr 24 17:59 | 2026 Apr 24 08:11:00 | 82.9604 | 0.00245 | 3.5003 | 117.8872 | 77.6769 | 12.08948 | 9.743 |
| 2026 Apr 23 17:57 | 2026 Apr 19 07:15:13 | 82.9598 | 0.00244 | 3.6842 | 128.0217 | 77.6769 | 12.08948 | 9.743 |
| 2026 Apr 22 17:57 | 2026 Apr 19 07:15:13 | 82.9598 | 0.00244 | 3.6842 | 128.0217 | 77.6769 | 12.08948 | 9.743 |
| 2026 Apr 21 17:57 | 2026 Apr 19 07:15:13 | 82.9598 | 0.00244 | 3.6842 | 128.0217 | 77.6769 | 12.08948 | 9.743 |
| 2026 Apr 20 17:57 | 2026 Apr 19 07:15:13 | 82.9598 | 0.00244 | 3.6842 | 128.0217 | 77.6769 | 12.08948 | 9.743 |
| 2026 Apr 19 17:58 | 2026 Apr 19 07:15:13 | 82.9598 | 0.00244 | 3.6842 | 128.0217 | 77.6769 | 12.08948 | 9.743 |
| 2026 Apr 18 17:56 | 2026 Apr 13 06:04:44 | 82.9588 | 0.00242 | 3.9050 | 140.2479 | 77.6769 | 12.08948 | 9.743 |
| 2026 Apr 16 17:57 | 2026 Apr 13 06:04:44 | 82.9588 | 0.00242 | 3.9050 | 140.2479 | 77.6769 | 12.08948 | 9.743 |
| 2026 Apr 14 17:57 | 2026 Apr 13 06:04:44 | 82.9588 | 0.00242 | 3.9050 | 140.2479 | 77.6769 | 12.08948 | 9.743 |
| 2026 Apr 13 17:57 | 2026 Apr 13 06:04:44 | 82.9588 | 0.00242 | 3.9050 | 140.2479 | 77.6769 | 12.08948 | 9.743 |
| 2026 Apr 12 17:57 | 2026 Apr 08 10:53:17 | 82.9577 | 0.00240 | 4.0802 | 149.9803 | 77.6769 | 12.08948 | 9.743 |
| 2026 Apr 11 17:57 | 2026 Apr 08 10:53:17 | 82.9577 | 0.00240 | 4.0802 | 149.9803 | 77.6769 | 12.08948 | 9.743 |
| 2026 Apr 10 17:58 | 2026 Apr 08 10:53:17 | 82.9577 | 0.00240 | 4.0802 | 149.9803 | 77.6769 | 12.08948 | 9.743 |
| 2026 Apr 09 18:01 | 2026 Apr 08 10:53:17 | 82.9577 | 0.00240 | 4.0802 | 149.9803 | 77.6769 | 12.08948 | 9.743 |